Saltar al contingut principal

Dades de l'estació automàtica la Tallada d'Empordà

Selector estació i data
?
?

Resum diari

23:00 TU
Dades diàries de l'estació meteorològica
Temperatura mitjana 25.6 °C
Temperatura màxima 33.7 °C 15:09 TU
Temperatura mínima 15.3 °C 4:18 TU
Humitat relativa mitjana 66%
Precipitació acumulada 0.0 mm
Ratxa màxima del vent (2 m) 25.9 km/h - 152º 14:35 TU
Irradiació solar global 29.1 MJ/m2

El tram horari està expressat en Temps Universal (TU). Cal sumar una hora en horari d'hivern i dues en horari d'estiu per passar a l'hora oficial.

la Tallada d'Empordà

Metadades estació meteorològica
Municipi La Tallada d'Empordà
Comarca Baix Empordà
Altitud 15 m
Data alta 01.05.1989
Estat actual Operativa
Dades de període
Període
TU
TM
°C
TX
°C
TN
°C
HRM
%
PPT
mm
VVM (2 m)
km/h
DVM (2 m)
graus
VVX (2 m)
km/h
RS
W/m2
00:00 - 00:30 17.4 17.7 17.1 84 0.0 0.0 233 2.2 0
00:30 - 01:00 17.0 17.3 16.7 85 0.0 0.0 61 1.8 0
01:00 - 01:30 16.8 17.1 16.5 86 0.0 0.4 306 2.2 0
01:30 - 02:00 16.8 17.0 16.7 85 0.0 0.4 286 2.9 0
02:00 - 02:30 16.2 16.7 15.9 89 0.0 0.0 175 0.0 0
02:30 - 03:00 16.1 16.3 15.9 90 0.0 0.4 300 2.5 0
03:00 - 03:30 16.0 16.3 15.8 90 0.0 0.4 249 2.9 0
03:30 - 04:00 15.8 15.9 15.6 90 0.0 1.4 268 3.6 0
04:00 - 04:30 15.5 15.8 15.3 91 0.0 0.0 237 2.2 6
04:30 - 05:00 15.6 16.0 15.4 91 0.0 0.4 268 2.5 21
05:00 - 05:30 16.3 17.1 16.0 90 0.0 0.0 144 2.5 44
05:30 - 06:00 18.3 19.6 17.2 80 0.0 0.4 143 2.5 153
06:00 - 06:30 20.3 21.2 19.7 73 0.0 1.1 76 4.7 245
06:30 - 07:00 22.6 23.7 21.4 69 0.0 1.8 77 5.4 329
07:00 - 07:30 24.4 25.0 23.5 63 0.0 2.2 129 6.8 423
07:30 - 08:00 26.4 27.3 24.9 56 0.0 5.4 197 18.4 515
08:00 - 08:30 27.8 28.2 27.4 51 0.0 6.8 220 18.4 602
08:30 - 09:00 29.0 29.8 28.3 49 0.0 6.5 214 17.6 673
09:00 - 09:30 30.0 30.5 29.7 47 0.0 6.5 206 22.3 755
09:30 - 10:00 30.8 31.6 30.3 45 0.0 7.2 208 18.0 813
10:00 - 10:30 31.4 32.3 31.0 45 0.0 8.3 192 20.2 863
10:30 - 11:00 31.9 32.2 31.5 44 0.0 9.7 173 24.5 902
11:00 - 11:30 32.3 32.9 31.7 44 0.0 8.3 199 22.0 924
11:30 - 12:00 32.6 33.0 32.0 45 0.0 9.7 177 21.2 934
12:00 - 12:30 32.9 33.5 32.4 44 0.0 9.0 184 22.7 933
12:30 - 13:00 33.0 33.5 32.7 45 0.0 11.2 166 25.6 913
13:00 - 13:30 33.1 33.5 32.8 45 0.0 10.1 177 23.0 888
13:30 - 14:00 32.8 33.1 32.4 47 0.0 10.4 181 24.5 852
14:00 - 14:30 32.6 32.9 32.2 48 0.0 10.4 171 23.8 790
14:30 - 15:00 32.6 33.0 32.1 49 0.0 10.8 152 25.9 726
15:00 - 15:30 33.2 33.7 32.5 48 0.0 7.6 157 20.2 655
15:30 - 16:00 32.7 33.1 32.3 51 0.0 9.7 176 20.5 575
16:00 - 16:30 32.0 32.4 31.5 53 0.0 10.1 194 20.9 495
16:30 - 17:00 31.5 31.8 31.2 55 0.0 6.5 205 22.0 405
17:00 - 17:30 31.3 31.9 30.4 55 0.0 7.2 181 23.0 301
17:30 - 18:00 29.9 30.4 29.5 59 0.0 5.8 200 18.7 204
18:00 - 18:30 29.1 29.4 28.5 62 0.0 3.6 235 12.2 121
18:30 - 19:00 28.2 28.5 27.8 66 0.0 4.0 183 10.8 45
19:00 - 19:30 27.5 27.8 27.2 68 0.0 3.2 173 9.7 12
19:30 - 20:00 27.1 27.2 26.7 67 0.0 2.9 218 12.2 4
20:00 - 20:30 26.2 26.7 25.2 70 0.0 1.1 158 5.0 4
20:30 - 21:00 25.0 25.2 24.8 76 0.0 1.4 136 5.0 4
21:00 - 21:30 24.4 24.7 24.1 79 0.0 1.4 126 4.3 4
21:30 - 22:00 23.8 24.1 23.4 82 0.0 0.4 116 4.3 4
22:00 - 22:30 23.0 23.3 22.8 85 0.0 0.4 98 2.2 4
22:30 - 23:00 22.9 23.0 22.7 87 0.0 0.4 348 2.5 4
23:00 - 23:30 22.2 22.6 22.0 89 0.0 0.0 199 1.4 4

Les dades en taronja només han passat un control de qualitat automàtic. Resta pendent la seva validació definitiva.